Time;durP1;ratioP1;P1;durP2;ratioP2;P2;SDS_P1;SDS_P2;PMS_P1;PMS_P2;Temp;Humidity;BMP_temperature;BMP_pressure;BME280_temperature;BME280_humidity;BME280_pressure;Samples;Min_cycle;Max_cycle;Signal;HPM_P1;HPM_P2
2024/01/10 00:00:40;;;;;;;17.10;11.20;;;;;;;-0.46;83.98;103039.45;106796;1253;72723;-86
2024/01/10 00:03:27;;;;;;;17.50;11.80;;;;;;;-0.45;83.94;103034.98;106614;1253;138514;-87
2024/01/10 00:05:53;;;;;;;16.90;11.40;;;;;;;-0.42;83.78;103035.83;106804;1253;61345;-86
2024/01/10 00:08:20;;;;;;;16.90;11.30;;;;;;;-0.39;83.99;103033.16;106741;1253;138639;-87
2024/01/10 00:10:47;;;;;;;19.70;11.90;;;;;;;-0.37;83.93;103040.27;106746;1254;64891;-87
2024/01/10 00:13:14;;;;;;;17.20;11.50;;;;;;;-0.35;83.94;103036.65;107068;1253;71334;-87
2024/01/10 00:15:40;;;;;;;17.80;11.60;;;;;;;-0.33;83.82;103037.95;106744;1253;138546;-87
2024/01/10 00:18:07;;;;;;;19.80;12.20;;;;;;;-0.31;84.05;103032.13;106951;1253;61173;-87
2024/01/10 00:20:34;;;;;;;16.80;11.20;;;;;;;-0.28;83.94;103032.28;106774;1258;139644;-87
2024/01/10 00:23:00;;;;;;;18.60;12.20;;;;;;;-0.25;83.89;103032.28;106701;1260;64753;-87
2024/01/10 00:25:27;;;;;;;17.30;12.20;;;;;;;-0.22;83.93;103036.90;106937;1254;76684;-86
2024/01/10 00:27:54;;;;;;;17.10;11.10;;;;;;;-0.17;83.93;103031.95;106699;1256;139107;-86
2024/01/10 00:30:21;;;;;;;18.30;12.50;;;;;;;-0.15;83.83;103025.33;106944;1253;61250;-87
2024/01/10 00:32:48;;;;;;;15.30;10.90;;;;;;;-0.14;83.73;103023.55;106600;1253;138985;-86
2024/01/10 00:35:14;;;;;;;16.50;10.70;;;;;;;-0.12;83.70;103023.33;106985;1253;64093;-85
2024/01/10 00:37:41;;;;;;;14.90;10.50;;;;;;;-0.10;83.90;103031.66;106799;1253;72691;-86
2024/01/10 00:40:09;;;;;;;17.00;10.90;;;;;;;-0.08;83.84;103032.09;106603;1256;139287;-86
2024/01/10 00:42:36;;;;;;;16.30;11.50;;;;;;;-0.05;83.74;103029.08;106796;1255;61148;-86
2024/01/10 00:45:02;;;;;;;17.30;10.90;;;;;;;-0.03;83.88;103031.72;106795;1253;140468;-86
2024/01/10 00:47:32;;;;;;;17.10;11.60;;;;;;;-0.01;83.86;103038.71;106702;1260;64822;-86
2024/01/10 00:49:59;;;;;;;16.00;10.90;;;;;;;0.02;84.05;103037.25;106602;1260;140512;-87
2024/01/10 00:52:26;;;;;;;16.30;11.30;;;;;;;0.02;83.71;103030.35;106679;1260;61356;-86
2024/01/10 00:54:52;;;;;;;14.20;10.10;;;;;;;0.07;83.92;103034.00;106861;1253;59456;-87
2024/01/10 00:57:19;;;;;;;14.60;10.90;;;;;;;0.09;83.84;103029.83;106954;1253;138900;-86
2024/01/10 00:59:46;;;;;;;17.10;11.10;;;;;;;0.12;83.78;103019.85;107318;1253;63958;-87
2024/01/10 01:02:12;;;;;;;15.70;10.10;;;;;;;0.16;83.81;103016.34;106890;1257;139037;-87
2024/01/10 01:04:39;;;;;;;14.10;9.60;;;;;;;0.17;83.65;103017.29;106977;1253;61243;-87
2024/01/10 01:07:06;;;;;;;15.70;9.50;;;;;;;0.17;83.69;103019.02;106932;1253;59763;-86
2024/01/10 01:09:33;;;;;;;14.70;10.50;;;;;;;0.20;83.66;103023.23;106788;1258;138609;-86
2024/01/10 01:12:00;;;;;;;14.60;9.60;;;;;;;0.22;83.68;103018.27;106727;1253;66304;-85
2024/01/10 01:14:27;;;;;;;13.60;9.00;;;;;;;0.25;83.82;103016.82;106700;1258;138474;-86
2024/01/10 01:16:53;;;;;;;11.40;8.50;;;;;;;0.28;83.75;103016.45;106643;1253;61154;-86
2024/01/10 01:19:20;;;;;;;13.00;9.30;;;;;;;0.29;83.80;103015.40;106744;1254;61334;-86
2024/01/10 01:21:47;;;;;;;12.80;8.90;;;;;;;0.31;83.57;103016.94;106628;1259;138395;-86
2024/01/10 01:24:14;;;;;;;11.00;8.10;;;;;;;0.33;83.58;103016.81;106659;1253;64734;-86
2024/01/10 01:26:40;;;;;;;15.80;8.80;;;;;;;0.33;83.62;103008.05;106753;1253;138446;-87
2024/01/10 01:29:08;;;;;;;13.20;8.70;;;;;;;0.32;83.53;103005.16;106812;1256;61317;-86
2024/01/10 01:31:35;;;;;;;11.10;8.10;;;;;;;0.33;83.58;103005.57;106907;1254;61383;-86
2024/01/10 01:34:01;;;;;;;13.00;8.20;;;;;;;0.33;83.82;102998.35;106816;1254;138113;-86
2024/01/10 01:36:28;;;;;;;12.60;9.00;;;;;;;0.35;83.88;102995.95;106816;1253;66936;-86
2024/01/10 01:38:55;;;;;;;10.00;8.40;;;;;;;0.37;83.68;102995.29;106628;1261;138380;-86
2024/01/10 01:41:22;;;;;;;10.30;8.10;;;;;;;0.39;83.83;103001.05;106819;1253;61206;-86
2024/01/10 01:43:48;;;;;;;10.70;8.30;;;;;;;0.42;83.85;102998.38;106769;1253;59752;-86
2024/01/10 01:46:15;;;;;;;9.70;7.60;;;;;;;0.43;83.96;102996.61;106845;1258;76234;-86
2024/01/10 01:48:42;;;;;;;11.60;8.70;;;;;;;0.47;83.93;102997.52;106630;1253;65616;-86
2024/01/10 01:51:09;;;;;;;10.70;8.30;;;;;;;0.48;83.73;102990.38;106745;1254;138685;-86
2024/01/10 01:53:36;;;;;;;11.80;8.30;;;;;;;0.49;83.78;102985.61;106934;1253;59280;-85
2024/01/10 01:56:07;;;;;;;11.90;8.30;;;;;;;0.52;84.01;102981.08;106739;1253;138335;-85
2024/01/10 01:58:34;;;;;;;11.10;8.10;;;;;;;0.56;83.89;102984.81;106639;1253;75039;-86
2024/01/10 02:01:05;;;;;;;12.80;7.60;;;;;;;0.58;83.98;102985.88;106655;1260;66599;-86
2024/01/10 02:03:32;;;;;;;11.00;6.70;;;;;;;0.61;83.91;102986.57;106652;1255;139226;-86
2024/01/10 02:06:03;;;;;;;11.40;7.80;;;;;;;0.62;83.83;102978.48;106532;1256;61296;-86
2024/01/10 02:08:33;;;;;;;11.00;8.00;;;;;;;0.65;83.81;102972.52;106566;1258;138649;-86
2024/01/10 02:11:00;;;;;;;8.60;7.00;;;;;;;0.67;83.91;102969.15;106606;1260;73375;-87
2024/01/10 02:13:28;;;;;;;8.30;6.80;;;;;;;0.70;83.86;102969.73;106911;1253;64401;-86
2024/01/10 02:15:54;;;;;;;9.90;7.40;;;;;;;0.71;83.90;102968.52;106620;1258;137975;-85
2024/01/10 02:18:21;;;;;;;11.90;7.30;;;;;;;0.76;83.95;102965.84;106593;1258;59808;-85
2024/01/10 02:20:49;;;;;;;10.20;7.50;;;;;;;0.79;84.00;102965.47;106782;1253;138127;-86
2024/01/10 02:23:16;;;;;;;8.40;6.90;;;;;;;0.82;83.94;102961.63;106728;1253;73350;-86
2024/01/10 02:25:42;;;;;;;9.80;7.10;;;;;;;0.85;84.00;102953.42;106844;1259;66283;-87
2024/01/10 02:28:09;;;;;;;10.00;7.50;;;;;;;0.88;84.01;102950.77;106829;1253;137824;-87
2024/01/10 02:30:36;;;;;;;10.40;7.30;;;;;;;0.90;83.87;102947.41;106787;1262;61282;-86
2024/01/10 02:33:03;;;;;;;9.30;7.20;;;;;;;0.91;83.68;102953.42;106696;1255;137631;-87
2024/01/10 02:35:32;;;;;;;9.90;7.30;;;;;;;0.90;83.63;102955.11;106602;1261;74465;-86
2024/01/10 02:37:59;;;;;;;12.50;8.00;;;;;;;0.89;83.57;102949.88;106415;1253;138393;-87
2024/01/10 02:40:26;;;;;;;10.50;8.40;;;;;;;0.90;83.74;102951.86;106672;1261;72608;-87
2024/01/10 02:42:53;;;;;;;10.40;7.50;;;;;;;0.91;83.69;102954.18;106893;1255;61221;-86
2024/01/10 02:45:19;;;;;;;10.70;7.90;;;;;;;0.92;83.80;102942.38;106803;1253;138871;-86
2024/01/10 02:47:46;;;;;;;10.60;8.20;;;;;;;0.94;83.70;102941.05;106976;1253;73326;-86
2024/01/10 02:50:13;;;;;;;10.60;7.50;;;;;;;0.95;83.72;102945.09;106640;1253;138382;-86
2024/01/10 02:52:40;;;;;;;10.70;7.70;;;;;;;0.96;83.87;102950.21;106725;1253;71694;-86
2024/01/10 02:55:07;;;;;;;13.60;7.80;;;;;;;0.99;83.76;102949.76;106950;1253;61273;-88
2024/01/10 02:57:33;;;;;;;9.50;7.30;;;;;;;1.00;83.70;102943.14;107474;1258;138355;-87
2024/01/10 03:00:00;;;;;;;10.20;8.10;;;;;;;1.01;83.90;102938.45;107273;1253;73401;-86
2024/01/10 03:02:27;;;;;;;12.90;8.30;;;;;;;1.04;83.89;102933.52;107153;1253;138840;-86
2024/01/10 03:04:54;;;;;;;12.40;8.30;;;;;;;1.07;83.72;102934.67;107106;1254;71388;-85
2024/01/10 03:07:21;;;;;;;14.10;9.40;;;;;;;1.08;83.77;102939.16;107056;1258;61186;-87
2024/01/10 03:09:48;;;;;;;10.00;7.30;;;;;;;1.10;83.63;102942.79;106973;1253;138531;-87
2024/01/10 03:12:14;;;;;;;11.20;7.50;;;;;;;1.10;83.62;102933.48;106891;1253;74324;-88
2024/01/10 03:14:41;;;;;;;10.30;7.60;;;;;;;1.11;83.58;102934.09;106784;1258;138340;-88
2024/01/10 03:17:08;;;;;;;11.10;7.90;;;;;;;1.12;83.62;102934.98;106849;1253;73317;-87
2024/01/10 03:19:37;;;;;;;10.10;7.10;;;;;;;1.11;83.69;102932.66;106863;1253;62073;-87
2024/01/10 03:22:03;;;;;;;12.90;7.50;;;;;;;1.12;83.58;102925.36;106688;1259;138536;-87
2024/01/10 03:24:30;;;;;;;10.70;8.40;;;;;;;1.14;83.61;102924.68;106627;1254;73832;-87
2024/01/10 03:26:57;;;;;;;10.00;8.10;;;;;;;1.16;83.56;102923.02;106788;1258;138014;-87
2024/01/10 03:29:24;;;;;;;13.50;7.90;;;;;;;1.15;83.43;102921.09;106737;1253;73287;-87
2024/01/10 03:31:50;;;;;;;10.20;8.10;;;;;;;1.15;83.57;102925.97;106897;1253;137606;-86
2024/01/10 03:34:17;;;;;;;12.20;9.00;;;;;;;1.15;83.39;102921.12;106689;1259;61485;-86
2024/01/10 03:36:44;;;;;;;11.70;9.30;;;;;;;1.13;83.45;102916.30;106710;1261;75716;-86
2024/01/10 03:39:11;;;;;;;10.90;7.70;;;;;;;1.13;83.45;102915.94;106727;1254;138410;-86
2024/01/10 03:41:38;;;;;;;10.00;7.70;;;;;;;1.14;83.50;102919.83;106881;1253;72731;-86
2024/01/10 03:44:05;;;;;;;10.70;8.40;;;;;;;1.13;83.36;102913.19;106546;1254;138350;-86
2024/01/10 03:46:32;;;;;;;10.20;8.30;;;;;;;1.12;83.36;102911.96;106693;1253;62970;-86
2024/01/10 03:48:58;;;;;;;10.50;8.40;;;;;;;1.11;83.43;102916.64;106916;1254;73825;-86
2024/01/10 03:51:25;;;;;;;9.90;8.60;;;;;;;1.11;83.36;102917.28;106687;1259;138239;-86
2024/01/10 03:53:54;;;;;;;11.00;8.60;;;;;;;1.12;83.48;102913.20;106802;1262;72776;-86
2024/01/10 03:56:21;;;;;;;12.60;9.00;;;;;;;1.14;83.47;102913.80;106626;1254;138395;-87
2024/01/10 03:58:48;;;;;;;13.30;9.60;;;;;;;1.16;83.33;102915.54;106901;1253;61206;-88
2024/01/10 04:01:15;;;;;;;11.80;9.00;;;;;;;1.16;83.43;102914.13;106573;1261;73721;-87
2024/01/10 04:03:42;;;;;;;11.20;8.60;;;;;;;1.17;83.39;102909.03;106593;1255;138819;-88
2024/01/10 04:06:08;;;;;;;11.00;8.60;;;;;;;1.18;83.39;102908.91;106867;1256;71361;-87
2024/01/10 04:08:35;;;;;;;11.90;9.00;;;;;;;1.18;83.35;102907.74;106443;1262;138515;-87
2024/01/10 04:11:03;;;;;;;13.60;9.30;;;;;;;1.19;83.39;102909.34;106805;1257;61391;-87
2024/01/10 04:13:30;;;;;;;13.60;9.70;;;;;;;1.20;83.42;102910.86;106725;1259;77632;-87
2024/01/10 04:15:56;;;;;;;11.30;9.00;;;;;;;1.22;83.34;102909.33;106490;1255;138260;-86
2024/01/10 04:18:23;;;;;;;10.60;8.30;;;;;;;1.21;83.20;102908.38;106851;1254;73319;-87
2024/01/10 04:20:49;;;;;;;12.60;9.20;;;;;;;1.17;83.19;102910.92;106898;1256;138737;-86
2024/01/10 04:23:16;;;;;;;10.70;8.50;;;;;;;1.17;83.23;102910.26;106820;1256;59950;-87
2024/01/10 04:25:43;;;;;;;13.10;8.70;;;;;;;1.19;83.15;102909.21;106792;1255;73327;-87
2024/01/10 04:28:09;;;;;;;12.00;8.60;;;;;;;1.21;83.13;102909.91;106478;1255;138442;-87
2024/01/10 04:30:36;;;;;;;12.00;9.40;;;;;;;1.20;83.07;102904.60;106536;1258;71029;-86
2024/01/10 04:33:03;;;;;;;10.40;7.80;;;;;;;1.21;83.15;102903.71;106552;1256;137728;-87
2024/01/10 04:35:32;;;;;;;12.80;9.20;;;;;;;1.24;83.13;102902.45;106731;1256;61282;-86
2024/01/10 04:37:59;;;;;;;11.50;9.80;;;;;;;1.24;83.34;102899.88;106617;1254;137833;-88
2024/01/10 04:40:26;;;;;;;11.70;9.10;;;;;;;1.23;83.10;102900.50;106654;1254;65060;-84
2024/01/10 04:42:53;;;;;;;12.00;9.50;;;;;;;1.23;83.24;102894.25;106681;1254;72777;-84
2024/01/10 04:45:20;;;;;;;12.50;9.50;;;;;;;1.23;83.38;102892.33;106734;1257;139194;-87
2024/01/10 04:47:46;;;;;;;10.20;9.00;;;;;;;1.22;83.07;102893.30;106713;1259;60744;-85
2024/01/10 04:50:13;;;;;;;10.90;8.50;;;;;;;1.21;83.02;102897.28;106716;1259;138403;-87
2024/01/10 04:52:40;;;;;;;12.10;8.70;;;;;;;1.17;82.88;102892.64;106626;1256;65111;-86
2024/01/10 04:55:07;;;;;;;14.00;9.70;;;;;;;1.18;83.02;102891.61;106727;1255;73073;-86
2024/01/10 04:57:34;;;;;;;13.40;10.00;;;;;;;1.19;83.05;102891.27;106401;1257;138368;-86
2024/01/10 05:00:07;;;;;;;10.80;9.10;;;;;;;1.22;83.06;102894.12;106614;1253;60359;-86
2024/01/10 05:02:33;;;;;;;11.30;9.00;;;;;;;1.19;82.85;102892.82;108787;1253;138768;-87
2024/01/10 05:05:00;;;;;;;13.40;8.40;;;;;;;1.16;82.96;102892.55;108912;1255;66228;-84
2024/01/10 05:07:27;;;;;;;15.30;9.00;;;;;;;1.17;82.86;102895.55;108882;1253;72528;-86
2024/01/10 05:09:54;;;;;;;12.20;9.10;;;;;;;1.19;82.93;102899.66;108770;1253;138489;-86
2024/01/10 05:12:21;;;;;;;17.20;10.40;;;;;;;1.20;82.90;102898.62;107821;1253;60032;-86
2024/01/10 05:14:48;;;;;;;13.20;9.00;;;;;;;1.22;82.89;102903.32;106562;1259;139196;-85
2024/01/10 05:17:15;;;;;;;11.00;9.30;;;;;;;1.23;82.81;102897.69;106838;1253;66249;-84
2024/01/10 05:19:42;;;;;;;12.00;9.40;;;;;;;1.22;82.50;102892.88;106855;1259;72792;-86
2024/01/10 05:22:08;;;;;;;11.80;9.40;;;;;;;1.19;82.44;102892.61;106562;1254;137468;-86
2024/01/10 05:24:35;;;;;;;14.40;10.60;;;;;;;1.19;82.58;102894.89;106700;1259;61188;-85
2024/01/10 05:27:02;;;;;;;13.50;9.80;;;;;;;1.17;82.45;102894.72;106599;1260;137963;-85
2024/01/10 05:29:31;;;;;;;15.60;11.60;;;;;;;1.17;82.59;102892.09;106862;1253;65928;-84
2024/01/10 05:31:58;;;;;;;13.80;10.70;;;;;;;1.19;82.50;102888.77;106459;1260;138045;-84
2024/01/10 05:34:25;;;;;;;14.60;10.30;;;;;;;1.17;82.53;102884.29;106684;1258;61359;-84
2024/01/10 05:36:51;;;;;;;13.10;10.10;;;;;;;1.15;82.43;102879.46;106663;1253;60745;-84
2024/01/10 05:39:20;;;;;;;11.90;8.70;;;;;;;1.15;82.32;102881.02;106606;1254;139991;-84
2024/01/10 05:41:47;;;;;;;10.30;7.60;;;;;;;1.14;82.47;102879.49;106539;1253;66329;-85
2024/01/10 05:44:14;;;;;;;9.20;7.90;;;;;;;1.11;82.07;102876.85;106717;1258;139033;-86
2024/01/10 05:46:42;;;;;;;12.00;8.10;;;;;;;1.08;82.09;102876.70;106824;1259;61286;-85
2024/01/10 05:49:10;;;;;;;10.50;8.30;;;;;;;1.05;82.06;102874.45;106845;1254;61263;-88
2024/01/10 05:51:37;;;;;;;11.20;8.60;;;;;;;1.05;82.16;102872.38;106309;1257;140086;-87
2024/01/10 05:54:04;;;;;;;11.60;8.10;;;;;;;1.07;82.22;102870.88;106555;1255;65315;-85
2024/01/10 05:56:31;;;;;;;10.20;8.10;;;;;;;1.08;82.25;102867.48;106394;1253;140189;-86
2024/01/10 05:58:57;;;;;;;11.40;8.00;;;;;;;1.08;82.16;102872.14;106893;1259;60780;-86
2024/01/10 06:01:25;;;;;;;13.00;9.60;;;;;;;1.08;82.20;102873.55;106871;1259;60437;-85
2024/01/10 06:03:51;;;;;;;13.00;8.60;;;;;;;1.11;82.41;102876.51;106568;1255;140049;-87
2024/01/10 06:06:18;;;;;;;11.40;7.90;;;;;;;1.12;82.06;102876.55;106710;1261;66243;-87
2024/01/10 06:08:45;;;;;;;11.00;8.40;;;;;;;1.11;82.25;102871.27;106615;1255;137708;-87
2024/01/10 06:11:12;;;;;;;11.00;8.40;;;;;;;1.12;82.12;102867.77;106604;1256;61244;-87
2024/01/10 06:13:39;;;;;;;9.70;7.80;;;;;;;1.13;81.98;102866.93;106609;1255;60180;-88
2024/01/10 06:16:07;;;;;;;10.70;8.40;;;;;;;1.13;81.98;102867.84;106749;1254;139441;-89
2024/01/10 06:18:34;;;;;;;10.70;8.80;;;;;;;1.12;81.84;102874.64;106667;1262;65820;-87
2024/01/10 06:21:01;;;;;;;11.40;9.10;;;;;;;1.09;81.92;102865.58;106715;1253;140071;-90
2024/01/10 06:23:31;;;;;;;10.60;8.00;;;;;;;1.08;82.17;102864.79;106688;1253;59721;-90
2024/01/10 06:25:57;;;;;;;11.50;7.40;;;;;;;1.08;81.88;102858.66;106589;1254;140213;-88
2024/01/10 06:28:24;;;;;;;8.20;7.10;;;;;;;1.05;81.96;102858.95;106924;1258;74594;-87
2024/01/10 06:30:52;;;;;;;8.80;7.20;;;;;;;1.04;82.00;102856.97;106630;1254;66032;-87
2024/01/10 06:33:19;;;;;;;9.80;8.10;;;;;;;1.05;82.08;102860.88;106792;1253;138777;-88
2024/01/10 06:35:46;;;;;;;10.70;7.30;;;;;;;1.05;82.17;102864.77;106871;1254;61269;-89
2024/01/10 06:38:13;;;;;;;9.50;7.30;;;;;;;1.04;82.08;102869.52;106853;1253;139028;-89
2024/01/10 06:40:40;;;;;;;9.50;7.50;;;;;;;1.03;81.96;102872.25;107085;1253;74661;-89
2024/01/10 06:43:08;;;;;;;9.40;7.70;;;;;;;1.03;81.91;102870.85;106942;1253;65933;-88
2024/01/10 06:45:35;;;;;;;10.70;8.60;;;;;;;1.05;81.89;102875.18;106972;1254;138060;-88
2024/01/10 06:48:02;;;;;;;12.70;8.50;;;;;;;1.10;82.28;102875.38;107335;1260;61051;-87
2024/01/10 06:50:30;;;;;;;11.00;8.40;;;;;;;1.13;82.05;102878.01;107426;1254;138516;-87
2024/01/10 06:52:57;;;;;;;9.10;7.30;;;;;;;1.13;81.84;102883.95;107445;1259;75115;-87
2024/01/10 06:55:24;;;;;;;7.30;6.30;;;;;;;1.14;82.05;102887.28;107377;1254;64887;-88
2024/01/10 06:57:54;;;;;;;7.10;6.10;;;;;;;1.13;81.98;102888.23;106940;1254;136395;-86
2024/01/10 07:00:21;;;;;;;8.60;6.30;;;;;;;1.11;81.91;102884.05;106870;1254;59577;-87
2024/01/10 07:02:49;;;;;;;9.20;6.70;;;;;;;1.09;81.77;102882.48;106644;1253;137300;-88
2024/01/10 07:05:15;;;;;;;10.20;7.50;;;;;;;1.08;82.00;102883.95;107014;1253;74627;-88
2024/01/10 07:07:43;;;;;;;14.60;8.00;;;;;;;1.11;82.08;102886.83;107462;1253;65298;-88
2024/01/10 07:10:10;;;;;;;16.60;10.70;;;;;;;1.13;82.06;102885.30;107548;1258;138435;-89
2024/01/10 07:12:37;;;;;;;14.70;11.20;;;;;;;1.13;81.85;102885.48;107528;1260;61151;-88
2024/01/10 07:15:04;;;;;;;13.60;12.10;;;;;;;1.14;82.10;102884.38;107561;1253;139548;-89
2024/01/10 07:17:31;;;;;;;20.50;16.10;;;;;;;1.18;82.03;102884.04;107530;1258;72398;-88
2024/01/10 07:19:58;;;;;;;18.20;13.90;;;;;;;1.21;81.96;102884.14;107406;1254;139452;-88
2024/01/10 07:22:25;;;;;;;17.60;13.30;;;;;;;1.25;82.07;102882.46;106982;1254;73313;-88
2024/01/10 07:24:51;;;;;;;23.10;17.50;;;;;;;1.28;82.00;102886.02;106845;1254;60370;-89
2024/01/10 07:27:18;;;;;;;16.50;12.30;;;;;;;1.29;82.00;102890.33;106640;1260;138733;-89
2024/01/10 07:29:46;;;;;;;17.30;12.50;;;;;;;1.30;81.93;102893.22;106958;1253;74729;-88
2024/01/10 07:32:13;;;;;;;20.20;14.50;;;;;;;1.33;81.85;102888.84;106760;1254;138012;-89
2024/01/10 07:34:40;;;;;;;19.80;13.50;;;;;;;1.34;81.76;102884.05;106890;1254;72403;-89
2024/01/10 07:37:08;;;;;;;24.40;17.00;;;;;;;1.33;81.80;102883.26;106916;1258;59693;-87
2024/01/10 07:39:35;;;;;;;24.30;17.00;;;;;;;1.34;81.77;102882.52;107050;1259;138306;-89
2024/01/10 07:42:02;;;;;;;18.10;12.60;;;;;;;1.34;81.74;102880.11;107137;1253;73354;-88
2024/01/10 07:44:29;;;;;;;16.90;13.00;;;;;;;1.33;81.60;102883.44;106746;1254;138998;-87
2024/01/10 07:46:55;;;;;;;15.30;11.30;;;;;;;1.33;81.64;102886.39;106705;1260;72716;-87
2024/01/10 07:49:23;;;;;;;15.80;11.10;;;;;;;1.36;81.52;102890.08;107049;1254;61384;-87
2024/01/10 07:51:50;;;;;;;17.50;12.90;;;;;;;1.36;81.61;102884.05;106729;1254;138694;-87
2024/01/10 07:54:17;;;;;;;18.90;13.50;;;;;;;1.39;81.80;102881.40;106717;1260;75271;-88
2024/01/10 07:56:44;;;;;;;18.40;12.60;;;;;;;1.44;81.66;102881.72;106751;1256;139442;-89
2024/01/10 07:59:14;;;;;;;15.40;10.40;;;;;;;1.46;81.48;102882.07;106760;1254;73222;-88
2024/01/10 08:01:58;;;;;;;12.30;9.40;;;;;;;1.47;81.58;102883.91;106944;1259;61460;-88
2024/01/10 08:04:26;;;;;;;13.50;10.20;;;;;;;1.50;81.37;102888.48;106873;1254;59413;-88
2024/01/10 08:06:55;;;;;;;16.00;11.60;;;;;;;1.54;81.50;102891.31;106854;1259;73433;-87
2024/01/10 08:09:23;;;;;;;19.70;12.40;;;;;;;1.58;81.44;102890.44;106714;1259;137864;-88
2024/01/10 08:11:50;;;;;;;15.30;11.50;;;;;;;1.60;81.44;102890.19;106727;1260;73759;-88
2024/01/10 08:14:17;;;;;;;17.30;12.80;;;;;;;1.63;81.35;102891.27;106583;1259;198960;-88
2024/01/10 08:16:44;;;;;;;20.40;14.40;;;;;;;1.65;81.48;102894.08;106856;1253;61347;-88
2024/01/10 08:19:11;;;;;;;19.70;14.10;;;;;;;1.66;81.26;102894.38;106605;1260;73444;-87
2024/01/10 08:21:37;;;;;;;17.70;14.20;;;;;;;1.69;81.19;102888.93;106544;1262;138844;-88
2024/01/10 08:24:05;;;;;;;19.60;12.90;;;;;;;1.73;81.27;102888.63;106733;1260;72750;-87
2024/01/10 08:26:32;;;;;;;17.50;13.80;;;;;;;1.76;81.02;102890.48;106828;1260;139017;-87
2024/01/10 08:28:58;;;;;;;17.00;13.10;;;;;;;1.78;81.11;102891.02;106908;1254;61150;-87
2024/01/10 08:31:26;;;;;;;18.40;13.80;;;;;;;1.81;80.90;102895.73;106780;1254;74700;-87
2024/01/10 08:33:53;;;;;;;24.40;15.50;;;;;;;1.86;81.23;102893.80;106499;1254;141513;-87
2024/01/10 08:36:20;;;;;;;20.10;14.50;;;;;;;1.91;80.97;102890.23;106957;1258;71425;-87
2024/01/10 08:38:46;;;;;;;18.10;14.20;;;;;;;1.95;80.84;102885.53;106757;1257;137864;-87
2024/01/10 08:41:13;;;;;;;20.40;15.00;;;;;;;1.99;80.75;102885.29;106916;1259;61388;-88
2024/01/10 08:43:41;;;;;;;16.00;12.20;;;;;;;2.02;80.65;102889.64;106802;1253;73447;-88
2024/01/10 08:46:10;;;;;;;18.80;14.10;;;;;;;2.02;80.57;102887.57;106862;1259;138340;-88
2024/01/10 08:48:37;;;;;;;19.00;14.20;;;;;;;2.05;80.52;102882.65;106711;1260;71414;-88
2024/01/10 08:51:04;;;;;;;22.10;14.80;;;;;;;2.08;80.39;102888.29;106789;1260;137988;-86
2024/01/10 08:53:34;;;;;;;19.50;15.00;;;;;;;2.10;80.36;102889.66;106952;1257;59348;-88
2024/01/10 08:56:04;;;;;;;16.90;12.80;;;;;;;2.11;80.51;102881.82;106641;1256;138503;-88
2024/01/10 08:58:31;;;;;;;20.10;13.80;;;;;;;2.14;80.22;102882.14;106621;1254;63932;-88
2024/01/10 09:00:57;;;;;;;17.10;13.20;;;;;;;2.18;80.29;102878.96;106775;1261;71418;-89
2024/01/10 09:03:24;;;;;;;18.10;13.80;;;;;;;2.26;80.40;102876.95;106835;1256;138843;-88
2024/01/10 09:05:51;;;;;;;19.20;14.30;;;;;;;2.33;80.15;102878.28;106804;1254;61257;-89
2024/01/10 09:08:18;;;;;;;18.00;12.70;;;;;;;2.39;80.16;102876.95;106639;1254;137949;-88
2024/01/10 09:10:54;;;;;;;22.50;13.80;;;;;;;2.42;79.93;102871.00;106869;1254;65134;-88
2024/01/10 09:13:21;;;;;;;17.90;13.10;;;;;;;2.44;79.96;102872.58;106956;1253;72207;-88
2024/01/10 09:15:48;;;;;;;18.60;12.90;;;;;;;2.46;79.71;102871.30;106821;1259;138017;-88
2024/01/10 09:18:15;;;;;;;18.10;13.00;;;;;;;2.49;79.75;102873.73;106708;1254;61265;-87
2024/01/10 09:20:41;;;;;;;18.60;13.40;;;;;;;2.55;79.70;102876.95;106465;1261;138023;-88
2024/01/10 09:23:08;;;;;;;18.20;13.10;;;;;;;2.59;79.78;102877.73;106827;1257;65064;-88
2024/01/10 09:25:35;;;;;;;23.90;14.40;;;;;;;2.63;79.68;102880.73;106811;1255;72651;-87
2024/01/10 09:28:04;;;;;;;25.10;15.70;;;;;;;2.67;79.53;102881.61;106801;1254;138920;-88
2024/01/10 09:30:30;;;;;;;24.00;14.60;;;;;;;2.66;79.26;102878.92;106848;1254;61350;-88
2024/01/10 09:32:57;;;;;;;22.10;14.00;;;;;;;2.65;79.21;102879.34;106797;1260;138478;-88
2024/01/10 09:35:24;;;;;;;25.20;15.00;;;;;;;2.66;79.11;102882.89;106911;1259;66254;-88
2024/01/10 09:37:51;;;;;;;21.20;14.70;;;;;;;2.71;79.25;102882.78;106937;1257;72705;-88
2024/01/10 09:40:20;;;;;;;22.30;13.40;;;;;;;2.74;79.16;102883.91;106534;1255;138305;-88
2024/01/10 09:42:54;;;;;;;18.70;13.10;;;;;;;2.76;79.02;102884.98;107032;1260;61622;-87
2024/01/10 09:45:21;;;;;;;24.10;13.50;;;;;;;2.76;79.02;102884.94;106805;1257;137648;-87
2024/01/10 09:47:50;;;;;;;19.60;12.10;;;;;;;2.75;78.89;102883.20;106806;1254;65003;-88
2024/01/10 09:50:17;;;;;;;19.60;12.10;;;;;;;2.72;78.75;102881.84;106789;1257;137950;-88
2024/01/10 09:52:54;;;;;;;18.00;12.90;;;;;;;2.73;78.75;102882.30;106655;1254;59330;-88
2024/01/10 09:55:22;;;;;;;19.40;14.80;;;;;;;2.73;78.73;102880.91;106872;1254;61154;-87
2024/01/10 09:57:49;;;;;;;22.70;14.70;;;;;;;2.74;78.73;102879.61;106702;1260;137383;-88
2024/01/10 10:00:16;;;;;;;15.80;11.70;;;;;;;2.78;78.69;102875.65;106820;1254;65097;-87
2024/01/10 10:02:43;;;;;;;15.80;11.50;;;;;;;2.78;78.57;102870.26;106782;1254;138330;-87
2024/01/10 10:05:14;;;;;;;16.30;11.80;;;;;;;2.80;78.60;102864.67;106773;1254;59876;-88
2024/01/10 10:07:47;;;;;;;19.50;12.30;;;;;;;2.84;78.57;102864.55;106835;1260;61260;-88
2024/01/10 10:10:15;;;;;;;14.60;11.60;;;;;;;2.86;78.48;102865.05;106879;1253;137653;-89
2024/01/10 10:12:45;;;;;;;16.00;11.60;;;;;;;2.89;78.51;102859.11;106602;1260;66072;-89
2024/01/10 10:15:15;;;;;;;22.80;14.40;;;;;;;2.93;78.49;102848.17;106570;1257;137768;-88
2024/01/10 10:17:47;;;;;;;21.00;14.40;;;;;;;3.00;78.66;102849.48;106950;1254;61273;-88
2024/01/10 10:20:19;;;;;;;16.90;11.90;;;;;;;2.98;78.29;102844.25;106523;1254;137804;-88
2024/01/10 10:23:09;;;;;;;15.50;12.10;;;;;;;2.97;78.32;102839.55;107520;1258;75325;-88
2024/01/10 10:25:37;;;;;;;20.40;12.20;;;;;;;3.04;78.27;102840.35;106674;1260;66247;-89
2024/01/10 10:28:04;;;;;;;23.20;14.20;;;;;;;3.12;78.42;102836.36;107041;1254;138386;-87
2024/01/10 10:30:32;;;;;;;22.80;14.50;;;;;;;3.15;78.24;102830.70;106733;1260;61316;-88
2024/01/10 10:32:59;;;;;;;19.50;12.30;;;;;;;3.19;78.02;102829.64;106777;1254;137146;-87
2024/01/10 10:35:26;;;;;;;14.90;11.30;;;;;;;3.19;77.96;102823.56;106876;1254;73567;-88
2024/01/10 10:37:55;;;;;;;15.30;11.00;;;;;;;3.22;77.88;102824.36;106910;1256;66795;-89
2024/01/10 10:40:21;;;;;;;17.90;13.20;;;;;;;3.23;77.80;102823.44;106703;1260;72712;-88
2024/01/10 10:42:50;;;;;;;15.50;11.40;;;;;;;3.28;77.84;102821.84;106780;1258;59761;-89
2024/01/10 10:45:18;;;;;;;15.90;11.10;;;;;;;3.30;77.61;102823.17;106562;1254;137620;-88
2024/01/10 10:47:49;;;;;;;18.20;11.50;;;;;;;3.28;77.52;102824.06;106692;1260;74801;-88
2024/01/10 10:50:25;;;;;;;14.20;10.70;;;;;;;3.32;77.58;102826.45;106862;1254;137777;-88
2024/01/10 10:52:51;;;;;;;18.10;12.40;;;;;;;3.35;77.51;102821.17;106884;1258;71377;-89
2024/01/10 10:55:18;;;;;;;14.50;10.80;;;;;;;3.37;77.47;102814.60;106686;1254;61369;-88
2024/01/10 10:57:46;;;;;;;15.10;11.20;;;;;;;3.35;77.30;102814.23;106848;1255;138358;-88
2024/01/10 11:00:18;;;;;;;15.10;10.90;;;;;;;3.31;77.22;102816.67;106880;1254;73352;-88
2024/01/10 11:02:46;;;;;;;15.70;11.00;;;;;;;3.29;77.25;102820.13;106962;1254;137667;-88
2024/01/10 11:05:13;;;;;;;15.60;11.90;;;;;;;3.26;77.18;102820.73;106836;1254;72562;-89
2024/01/10 11:07:42;;;;;;;14.10;10.70;;;;;;;3.25;77.28;102817.04;107208;1260;59613;-90
2024/01/10 11:10:12;;;;;;;18.80;12.10;;;;;;;3.23;77.07;102814.10;107125;1254;138401;-87